Delray Beach, FL

10:56 PM EST on February 28, 2015 (GMT -0500)
Palm Beach International | Change Station
CLOSE
Current Station
Airport
Location: West Palm Beach,
Elevation: 20 ft
Nearby Weather Stations

Elev 20 ft 26.68 °N, 80.10 °W | Updated 1 hour ago

Overcast
Overcast
74 °F
Feels Like 74 °F
N
18
Wind Variable Wind from East

Today
High -- | Low -- °F
--% Chance of Precip.
Yesterday
High -- | Low -- °F
Precip. -- in
6:45 AM 6:20 PM
Waxing Gibbous, 82% visible
Pressure 30.30 in
Visibility 10.0 miles
Clouds Mostly Cloudy 1300 ft
Mostly Cloudy 2500 ft
Overcast 3500 ft
Dew Point 69 °F
Humidity 85%
Rainfall 0.25 in
Snow Depth Not available.
UV 0 out of 12
Pollen 6.10 out of 12
Air Quality Not available.
Flu Activity Not available.
METAR KPBI 010253Z 08016KT 10SM BKN013 BKN025 OVC035 23/21 A3030 RMK AO2 SLP259 T02330206 51019

More Conditions Fewer Conditions

Pressure 30.30 in
Visibility 10.0 miles
Clouds Mostly Cloudy 1300 ft
Mostly Cloudy 2500 ft
Overcast 3500 ft
Dew Point 69 °F
Humidity 85%
Rainfall 0.25 in
Snow Depth Not available.
UV 0 out of 12
Pollen 6.10 out of 12
Air Quality Not available.
Flu Activity Not available.
METAR KPBI 010253Z 08016KT 10SM BKN013 BKN025 OVC035 23/21 A3030 RMK AO2 SLP259 T02330206 51019

More Conditions Fewer Conditions

Nowcast | as of 9:02 PM EST on February 28, 2015

Isolated showers continue to develop across Southeast Florida this evening. They are moving quickly to the west and will generally bring around a quarter of an inch of rain. Some localized areas may see a half of an inch of rain with any heavier showers. Shower activity should slow down by around midnight.

×

10-Day Weather Forecast

Almanac

Astronomy

Feb. 28, 2015 Rise Set
Actual Time
Civil Twilight
Nautical Twilight
Astronomical Twilight
Moon
Length of Visible Light
Length of Day
Tomorrow will be .
, % of the Moon is Illuminated

Today's Extremes

State Highs State Lows

Community

WunderPhotos

Upload Photos

1,801,289 photos uploaded!

WunderBlogs® & News

Nearby

Air Quality

  Air Quality AQ Index Pollutant
Not available.

Snow Depth

Station Depth Elevation

Earthquake Activity

City Distance Mag. Time & Date
Minimum magnitude displayed is 2.5.

Coastal Water Temperatures

Place Temperature

Nearby Weather Stations